Time;durP1;ratioP1;P1;durP2;ratioP2;P2;SDS_P1;SDS_P2;PMS_P1;PMS_P2;Temp;Humidity;BMP_temperature;BMP_pressure;BME280_temperature;BME280_humidity;BME280_pressure;Samples;Min_cycle;Max_cycle;Signal;HPM_P1;HPM_P2
2021/06/19 00:00:48;;;;;;;8.50;5.20;;;22.10;99.90;;;;;;5079062;28;20080;-42
2021/06/19 00:03:14;;;;;;;7.15;5.43;;;22.10;99.90;;;;;;5075346;28;20436;-42
2021/06/19 00:05:40;;;;;;;6.25;5.20;;;22.00;99.90;;;;;;5074420;28;20020;-42
2021/06/19 00:08:08;;;;;;;5.65;4.70;;;22.00;99.90;;;;;;5076791;28;20040;-43
2021/06/19 00:10:34;;;;;;;7.00;5.15;;;22.00;99.90;;;;;;5072342;28;20023;-42
2021/06/19 00:12:59;;;;;;;7.72;5.43;;;22.00;99.90;;;;;;5078871;28;20587;-42
2021/06/19 00:15:25;;;;;;;6.32;5.50;;;22.00;99.90;;;;;;5070910;28;20423;-42
2021/06/19 00:17:51;;;;;;;7.43;5.45;;;21.90;99.90;;;;;;5080750;28;20115;-41
2021/06/19 00:20:19;;;;;;;5.75;4.90;;;21.90;99.90;;;;;;5069237;28;20677;-42
2021/06/19 00:22:46;;;;;;;6.00;4.80;;;21.90;99.90;;;;;;5076916;28;20543;-41
2021/06/19 00:25:13;;;;;;;6.65;5.00;;;21.90;99.90;;;;;;5069638;28;20130;-42
2021/06/19 00:27:42;;;;;;;5.70;5.07;;;21.90;99.90;;;;;;5081405;28;20025;-42
2021/06/19 00:30:09;;;;;;;6.40;5.28;;;21.80;99.90;;;;;;5069247;28;20016;-42
2021/06/19 00:32:48;;;;;;;6.78;5.28;;;21.90;99.90;;;;;;5081798;28;20024;-42
2021/06/19 00:35:14;;;;;;;8.75;5.40;;;21.90;99.90;;;;;;5068935;28;20033;-42
2021/06/19 00:37:40;;;;;;;7.55;5.15;;;21.80;99.90;;;;;;5081477;28;20048;-43
2021/06/19 00:40:09;;;;;;;6.53;5.88;;;21.80;99.90;;;;;;5068624;28;20032;-41
2021/06/19 00:42:35;;;;;;;10.15;8.73;;;21.80;99.90;;;;;;5079432;28;20119;-42
2021/06/19 00:45:00;;;;;;;8.05;7.18;;;21.80;99.90;;;;;;5068468;28;20157;-42
2021/06/19 00:47:27;;;;;;;7.43;5.90;;;21.80;99.90;;;;;;5077223;28;20035;-42
2021/06/19 00:49:53;;;;;;;5.50;5.00;;;21.80;99.90;;;;;;5073256;28;20124;-41
2021/06/19 00:52:19;;;;;;;7.95;5.30;;;21.80;99.90;;;;;;5074285;28;20072;-41
2021/06/19 00:54:46;;;;;;;5.38;4.88;;;21.80;99.90;;;;;;5075878;28;20046;-42
2021/06/19 00:57:12;;;;;;;5.57;5.07;;;21.80;99.90;;;;;;5071178;28;20024;-42
2021/06/19 00:59:39;;;;;;;4.93;4.50;;;21.80;99.90;;;;;;5085120;28;20035;-42
2021/06/19 01:02:04;;;;;;;4.32;3.92;;;21.80;99.90;;;;;;5086483;28;20047;-42
2021/06/19 01:04:30;;;;;;;6.05;4.00;;;21.70;99.90;;;;;;5077363;28;20016;-42
2021/06/19 01:06:58;;;;;;;5.32;3.90;;;21.70;99.90;;;;;;5086500;28;20721;-42
2021/06/19 01:09:24;;;;;;;4.45;3.75;;;21.70;99.90;;;;;;5076619;28;20043;-43
2021/06/19 01:11:50;;;;;;;4.13;3.75;;;21.70;99.90;;;;;;5088410;28;20522;-42
2021/06/19 01:14:16;;;;;;;5.88;3.75;;;21.70;99.90;;;;;;5080536;28;20096;-42
2021/06/19 01:16:47;;;;;;;4.90;3.50;;;21.60;99.90;;;;;;5068050;28;20426;-45
2021/06/19 01:19:13;;;;;;;3.47;3.10;;;21.60;99.90;;;;;;5080855;28;20168;-43
2021/06/19 01:21:38;;;;;;;4.03;3.05;;;21.60;99.90;;;;;;5068150;28;20063;-43
2021/06/19 01:24:07;;;;;;;2.90;2.65;;;21.60;99.90;;;;;;5078776;28;20498;-43
2021/06/19 01:26:32;;;;;;;3.13;2.83;;;21.60;99.90;;;;;;5068872;28;20112;-45
2021/06/19 01:28:59;;;;;;;3.08;2.67;;;21.60;99.90;;;;;;5076814;28;20038;-41
2021/06/19 01:31:26;;;;;;;3.50;2.63;;;21.60;99.90;;;;;;5070562;28;20507;-42
2021/06/19 01:33:53;;;;;;;3.10;2.80;;;21.60;99.90;;;;;;5075274;28;20024;-42
2021/06/19 01:36:20;;;;;;;2.30;2.10;;;21.50;99.90;;;;;;5073298;28;20064;-42
2021/06/19 01:38:54;;;;;;;2.90;2.30;;;21.50;99.90;;;;;;5071960;28;20016;-42
2021/06/19 01:41:26;;;;;;;2.38;2.13;;;21.50;99.90;;;;;;5074622;28;20791;-41
2021/06/19 01:44:02;;;;;;;2.55;2.30;;;21.50;99.90;;;;;;5070965;28;20115;-43
2021/06/19 01:46:28;;;;;;;2.40;2.20;;;21.40;99.90;;;;;;5074029;28;20047;-43
2021/06/19 01:48:53;;;;;;;2.85;2.25;;;21.40;99.90;;;;;;5070352;28;20017;-42
2021/06/19 01:51:19;;;;;;;2.33;2.13;;;21.40;99.90;;;;;;5077574;28;20024;-43
2021/06/19 01:53:48;;;;;;;2.50;2.30;;;21.40;99.90;;;;;;5068714;28;20060;-43
2021/06/19 01:56:14;;;;;;;4.93;2.33;;;21.40;99.90;;;;;;5078778;28;20020;-41
2021/06/19 01:58:40;;;;;;;2.30;2.05;;;21.40;99.90;;;;;;5068064;28;20082;-43
2021/06/19 02:01:09;;;;;;;4.43;1.92;;;21.30;99.90;;;;;;5078880;28;20075;-41
2021/06/19 02:03:35;;;;;;;4.38;2.00;;;21.30;99.90;;;;;;5067707;28;20025;-41
2021/06/19 02:06:01;;;;;;;2.80;2.60;;;21.30;99.90;;;;;;5078958;28;20024;-41
2021/06/19 02:08:27;;;;;;;3.97;2.63;;;21.20;99.90;;;;;;5067822;28;20337;-42
2021/06/19 02:10:53;;;;;;;2.10;1.92;;;21.20;99.90;;;;;;5079301;28;20035;-41
2021/06/19 02:13:18;;;;;;;2.50;2.30;;;21.20;99.90;;;;;;5067235;28;20463;-41
2021/06/19 02:15:46;;;;;;;3.92;2.22;;;21.20;99.90;;;;;;5078484;28;20433;-42
2021/06/19 02:18:13;;;;;;;2.10;1.90;;;21.10;99.90;;;;;;5068308;28;20028;-41
2021/06/19 02:20:39;;;;;;;2.92;2.22;;;21.10;99.90;;;;;;5075947;28;20153;-41
2021/06/19 02:23:05;;;;;;;2.33;2.13;;;21.10;99.90;;;;;;5070590;28;20200;-42
2021/06/19 02:25:31;;;;;;;2.25;2.03;;;21.10;99.90;;;;;;5073549;28;20047;-42
2021/06/19 02:27:58;;;;;;;2.85;2.53;;;21.00;99.90;;;;;;5072490;28;20036;-43
2021/06/19 02:30:27;;;;;;;2.90;2.60;;;21.00;99.90;;;;;;5070977;28;20395;-43
2021/06/19 02:32:54;;;;;;;3.95;2.47;;;21.00;99.90;;;;;;5074773;28;20563;-43
2021/06/19 02:35:23;;;;;;;5.28;2.70;;;21.00;99.90;;;;;;5068473;28;20405;-42
2021/06/19 02:37:49;;;;;;;2.90;2.60;;;21.00;99.90;;;;;;5076929;28;20052;-41
2021/06/19 02:40:15;;;;;;;2.33;2.10;;;20.90;99.90;;;;;;5068187;28;20125;-41
2021/06/19 02:42:41;;;;;;;2.72;2.53;;;20.90;99.90;;;;;;5077495;28;20035;-42
2021/06/19 02:45:11;;;;;;;2.85;2.65;;;20.90;99.90;;;;;;5067359;28;20420;-41
2021/06/19 02:47:42;;;;;;;2.97;2.70;;;20.80;99.90;;;;;;5073661;28;20451;-41
2021/06/19 02:50:08;;;;;;;5.10;2.85;;;20.90;99.90;;;;;;5064929;28;20117;-41
2021/06/19 02:52:41;;;;;;;3.55;2.50;;;20.80;99.90;;;;;;5077378;28;20031;-42
2021/06/19 02:55:11;;;;;;;3.85;3.25;;;20.90;99.90;;;;;;5064599;28;20128;-41
2021/06/19 02:57:37;;;;;;;3.15;2.85;;;20.90;99.90;;;;;;5078563;28;20415;-42
2021/06/19 03:00:08;;;;;;;2.78;2.58;;;21.00;99.90;;;;;;5073028;28;20176;-43
2021/06/19 03:02:33;;;;;;;2.97;2.47;;;21.00;99.90;;;;;;5071239;28;20064;-42
2021/06/19 03:04:59;;;;;;;3.45;2.72;;;21.10;99.90;;;;;;5084251;28;20024;-42
2021/06/19 03:07:24;;;;;;;2.88;2.40;;;21.10;99.90;;;;;;5073869;28;20036;-42
2021/06/19 03:09:50;;;;;;;3.20;2.90;;;21.10;99.90;;;;;;5082260;28;20487;-42
2021/06/19 03:12:16;;;;;;;5.53;2.92;;;21.20;99.90;;;;;;5076445;28;20464;-43
2021/06/19 03:14:41;;;;;;;3.40;3.10;;;21.30;99.90;;;;;;5081724;28;20114;-43
2021/06/19 03:17:07;;;;;;;3.22;2.72;;;21.30;99.90;;;;;;5079837;28;20009;-43
2021/06/19 03:19:32;;;;;;;3.60;2.90;;;21.30;99.90;;;;;;5079737;28;20483;-42
2021/06/19 03:21:59;;;;;;;3.75;2.67;;;21.30;99.90;;;;;;5083202;28;20498;-42
2021/06/19 03:24:25;;;;;;;5.15;3.10;;;21.30;99.90;;;;;;5076248;28;20386;-40
2021/06/19 03:26:50;;;;;;;2.97;2.67;;;21.40;99.90;;;;;;5085076;28;20384;-41
2021/06/19 03:29:16;;;;;;;3.17;2.88;;;21.40;99.90;;;;;;5074681;28;20091;-41
2021/06/19 03:31:41;;;;;;;3.13;2.83;;;21.40;99.90;;;;;;5085067;28;20444;-41
2021/06/19 03:34:07;;;;;;;3.35;3.05;;;21.40;99.90;;;;;;5074859;28;20012;-42
2021/06/19 03:36:33;;;;;;;4.72;3.45;;;21.40;99.90;;;;;;5086807;28;20047;-41
2021/06/19 03:38:58;;;;;;;4.00;3.50;;;21.40;99.90;;;;;;5072799;28;20162;-42
2021/06/19 03:41:24;;;;;;;4.00;3.60;;;21.50;99.90;;;;;;5086787;28;20040;-42
2021/06/19 03:43:50;;;;;;;3.65;3.35;;;21.50;99.90;;;;;;5073555;28;20023;-42
2021/06/19 03:46:15;;;;;;;4.35;3.95;;;21.50;99.90;;;;;;5085992;28;20020;-42
2021/06/19 03:48:41;;;;;;;5.88;3.38;;;21.50;99.90;;;;;;5075957;28;20028;-42
2021/06/19 03:51:06;;;;;;;3.83;3.53;;;21.50;99.90;;;;;;5082790;28;20067;-42
2021/06/19 03:53:32;;;;;;;4.00;3.70;;;21.60;99.90;;;;;;5079158;28;20028;-42
2021/06/19 03:55:57;;;;;;;4.35;3.92;;;21.60;99.90;;;;;;5079164;28;20039;-44
2021/06/19 03:58:23;;;;;;;3.92;3.63;;;21.60;99.90;;;;;;5081485;28;20043;-42
2021/06/19 04:00:48;;;;;;;5.05;4.20;;;21.60;99.90;;;;;;5079538;28;20167;-42
2021/06/19 04:03:14;;;;;;;4.03;3.72;;;21.60;99.90;;;;;;5084081;28;20036;-43
2021/06/19 04:05:39;;;;;;;4.60;3.95;;;21.60;99.90;;;;;;5074775;28;20050;-42
2021/06/19 04:08:05;;;;;;;5.05;4.63;;;21.70;99.90;;;;;;5084530;28;20059;-43
2021/06/19 04:10:30;;;;;;;5.13;4.63;;;21.70;99.90;;;;;;5074799;28;20028;-43
2021/06/19 04:12:56;;;;;;;4.72;4.32;;;21.70;99.90;;;;;;5084561;28;20139;-42
2021/06/19 04:15:22;;;;;;;4.85;4.35;;;21.70;99.90;;;;;;5073984;28;20027;-43
2021/06/19 04:17:47;;;;;;;6.30;5.72;;;21.70;99.90;;;;;;5086163;28;20024;-42
2021/06/19 04:20:15;;;;;;;6.90;5.45;;;21.70;99.90;;;;;;5074294;28;20463;-42
2021/06/19 04:22:42;;;;;;;4.70;4.20;;;21.70;99.90;;;;;;5089933;28;20020;-42
2021/06/19 04:25:09;;;;;;;5.90;5.38;;;21.70;99.90;;;;;;5077566;28;20029;-42
2021/06/19 04:27:47;;;;;;;5.43;4.93;;;21.70;99.90;;;;;;5088610;28;20404;-42
2021/06/19 04:30:14;;;;;;;5.38;4.88;;;21.80;99.90;;;;;;5078455;28;20024;-41
2021/06/19 04:32:40;;;;;;;5.07;4.60;;;21.80;99.90;;;;;;5088422;28;20589;-42
2021/06/19 04:35:07;;;;;;;7.50;5.00;;;21.80;99.90;;;;;;5079715;28;20391;-41
2021/06/19 04:37:33;;;;;;;5.28;4.78;;;21.80;99.90;;;;;;5085512;28;20057;-42
2021/06/19 04:40:07;;;;;;;6.00;5.50;;;21.80;99.90;;;;;;5082479;28;20506;-42
2021/06/19 04:42:40;;;;;;;7.22;6.53;;;21.80;99.90;;;;;;5084100;28;20186;-42
2021/06/19 04:45:08;;;;;;;5.85;5.28;;;21.80;99.90;;;;;;5083247;28;20021;-42
2021/06/19 04:47:34;;;;;;;5.70;5.20;;;21.80;99.90;;;;;;5082771;28;20036;-43
2021/06/19 04:50:01;;;;;;;5.88;5.32;;;21.80;99.90;;;;;;5084717;28;20008;-43
2021/06/19 04:52:32;;;;;;;6.45;5.90;;;21.80;99.90;;;;;;5080546;28;20427;-42
2021/06/19 04:54:58;;;;;;;5.50;5.10;;;21.80;99.90;;;;;;5086600;28;20077;-43
2021/06/19 04:57:23;;;;;;;5.45;4.95;;;21.80;99.90;;;;;;5078641;28;20032;-42
2021/06/19 04:59:49;;;;;;;6.80;5.45;;;21.80;99.90;;;;;;5084894;28;20027;-42
2021/06/19 05:02:15;;;;;;;6.03;5.30;;;21.80;99.90;;;;;;5079211;28;20059;-43
2021/06/19 05:04:41;;;;;;;6.70;5.80;;;21.80;99.90;;;;;;5068763;28;20063;-42
2021/06/19 05:07:07;;;;;;;5.68;5.18;;;21.90;99.90;;;;;;5080497;28;20039;-42
2021/06/19 05:09:33;;;;;;;5.05;4.30;;;21.90;99.90;;;;;;5068796;28;20444;-42
2021/06/19 05:11:58;;;;;;;5.30;4.60;;;21.90;99.90;;;;;;5080395;28;20087;-42
2021/06/19 05:14:24;;;;;;;5.00;4.55;;;21.90;99.90;;;;;;5068489;28;20472;-41
2021/06/19 05:16:49;;;;;;;3.30;2.97;;;22.00;99.90;;;;;;5079552;28;20556;-43
2021/06/19 05:19:17;;;;;;;4.45;4.05;;;21.90;99.90;;;;;;5069506;28;20044;-43
2021/06/19 05:21:43;;;;;;;4.45;4.13;;;22.00;99.90;;;;;;5077058;28;20127;-43
2021/06/19 05:24:10;;;;;;;4.72;3.92;;;22.00;99.90;;;;;;5071208;28;20127;-42
2021/06/19 05:26:35;;;;;;;4.22;3.85;;;21.90;99.90;;;;;;5075006;28;20023;-43
2021/06/19 05:29:01;;;;;;;3.53;3.22;;;22.00;99.90;;;;;;5073473;28;20020;-43
2021/06/19 05:31:27;;;;;;;4.30;3.90;;;22.00;99.90;;;;;;5071045;28;20826;-41
2021/06/19 05:33:52;;;;;;;4.28;3.83;;;22.00;99.90;;;;;;5075788;28;20154;-42
2021/06/19 05:36:18;;;;;;;5.30;4.05;;;22.00;99.90;;;;;;5068569;28;20055;-41
2021/06/19 05:38:44;;;;;;;5.15;4.50;;;22.00;99.90;;;;;;5078031;28;20031;-42
2021/06/19 05:41:09;;;;;;;4.13;3.83;;;22.00;99.90;;;;;;5069432;28;20032;-43
2021/06/19 05:43:35;;;;;;;5.00;4.50;;;22.00;99.90;;;;;;5076391;28;20707;-43
2021/06/19 05:46:01;;;;;;;3.90;3.60;;;22.00;99.90;;;;;;5047771;28;20024;-44
2021/06/19 05:48:26;;;;;;;4.50;4.10;;;22.00;99.90;;;;;;5080537;28;20013;-41
2021/06/19 05:50:52;;;;;;;5.43;4.90;;;22.00;99.90;;;;;;5066903;28;20029;-41
2021/06/19 05:53:17;;;;;;;7.43;6.72;;;22.10;99.90;;;;;;5080439;28;20018;-41
2021/06/19 05:55:43;;;;;;;10.70;8.55;;;22.10;99.90;;;;;;5068109;28;20032;-42
2021/06/19 05:58:09;;;;;;;9.52;8.52;;;22.10;99.90;;;;;;5078378;28;20161;-42
2021/06/19 06:00:36;;;;;;;10.82;9.52;;;22.20;99.90;;;;;;5061517;28;20556;-41
2021/06/19 06:03:02;;;;;;;12.20;10.98;;;22.20;99.90;;;;;;5072171;28;20043;-42
2021/06/19 06:05:27;;;;;;;10.57;9.43;;;22.20;99.90;;;;;;5067528;28;20447;-42
2021/06/19 06:07:55;;;;;;;13.35;11.95;;;22.20;99.90;;;;;;5068329;28;20031;-42
2021/06/19 06:10:20;;;;;;;16.02;11.13;;;22.20;99.90;;;;;;5073691;28;20184;-42
2021/06/19 06:12:46;;;;;;;14.75;12.00;;;22.20;99.90;;;;;;5070096;28;20440;-43
2021/06/19 06:15:12;;;;;;;12.20;10.98;;;22.10;99.90;;;;;;5073528;28;20032;-41
2021/06/19 06:17:38;;;;;;;11.15;10.00;;;22.00;99.90;;;;;;5067404;28;20138;-42
2021/06/19 06:20:05;;;;;;;9.95;9.02;;;22.00;99.90;;;;;;5076636;28;20040;-42
2021/06/19 06:22:31;;;;;;;14.18;11.40;;;22.00;99.90;;;;;;5068096;28;20080;-42
2021/06/19 06:24:57;;;;;;;16.40;13.13;;;22.10;99.90;;;;;;5076860;28;20017;-42
2021/06/19 06:27:22;;;;;;;16.10;12.60;;;22.10;99.90;;;;;;5066035;28;20028;-42
2021/06/19 06:29:48;;;;;;;13.68;12.25;;;22.20;99.90;;;;;;5077881;28;20039;-42
2021/06/19 06:32:13;;;;;;;17.85;14.32;;;22.20;99.90;;;;;;5065955;28;20440;-44
2021/06/19 06:34:39;;;;;;;17.88;15.43;;;22.20;99.90;;;;;;5077961;28;20032;-41
2021/06/19 06:37:07;;;;;;;20.75;16.67;;;22.20;99.90;;;;;;5065555;28;20787;-42
2021/06/19 06:39:32;;;;;;;19.48;17.40;;;22.20;99.90;;;;;;5073842;28;20120;-41
2021/06/19 06:42:00;;;;;;;21.05;16.35;;;22.20;99.90;;;;;;5050879;28;20451;-41
2021/06/19 06:44:25;;;;;;;16.92;14.38;;;22.10;99.90;;;;;;5067837;28;20016;-42
2021/06/19 06:46:51;;;;;;;15.82;13.38;;;22.10;99.90;;;;;;5069289;28;20115;-41
2021/06/19 06:49:19;;;;;;;19.58;15.38;;;22.10;99.90;;;;;;5066498;28;20023;-43
2021/06/19 06:51:45;;;;;;;18.83;14.68;;;22.20;99.90;;;;;;5072782;28;20120;-42
2021/06/19 06:54:11;;;;;;;16.40;12.68;;;22.20;99.90;;;;;;5081913;28;20099;-42
2021/06/19 06:56:36;;;;;;;14.38;11.65;;;22.30;99.90;;;;;;5077324;28;20032;-43
2021/06/19 06:59:03;;;;;;;14.05;11.95;;;22.40;99.90;;;;;;5084351;28;20577;-43
2021/06/19 07:01:28;;;;;;;13.07;11.63;;;22.50;99.70;;;;;;5080918;28;20055;-43
2021/06/19 07:03:55;;;;;;;13.60;10.50;;;22.50;99.20;;;;;;5081901;28;20131;-43
2021/06/19 07:06:22;;;;;;;11.57;9.65;;;22.60;99.20;;;;;;5077031;28;20020;-43
2021/06/19 07:08:48;;;;;;;10.02;8.30;;;22.60;98.70;;;;;;5064987;28;20041;-42
2021/06/19 07:11:14;;;;;;;9.50;7.35;;;22.70;98.80;;;;;;5077681;28;20037;-41
2021/06/19 07:13:39;;;;;;;9.48;7.45;;;22.70;98.80;;;;;;5066079;28;20017;-41
2021/06/19 07:16:06;;;;;;;9.80;8.77;;;22.80;98.80;;;;;;5077199;28;20502;-42
2021/06/19 07:18:32;;;;;;;9.57;6.90;;;22.80;97.70;;;;;;5066442;28;20032;-42
2021/06/19 07:20:58;;;;;;;8.57;7.43;;;22.90;98.20;;;;;;5076962;28;20071;-44
2021/06/19 07:23:25;;;;;;;9.98;7.90;;;22.90;97.80;;;;;;5067235;28;20116;-43
2021/06/19 07:25:53;;;;;;;7.25;6.55;;;22.90;98.00;;;;;;5074694;28;20024;-42
2021/06/19 07:28:18;;;;;;;8.68;7.78;;;23.00;98.20;;;;;;5069243;28;20468;-42
2021/06/19 07:30:44;;;;;;;10.40;7.38;;;23.10;98.10;;;;;;5071678;28;20027;-42
2021/06/19 07:33:09;;;;;;;9.70;8.68;;;23.10;98.10;;;;;;5071378;28;20437;-42
2021/06/19 07:35:35;;;;;;;9.48;7.55;;;23.00;97.50;;;;;;5069211;28;20100;-41
2021/06/19 07:38:01;;;;;;;9.50;8.50;;;23.00;97.80;;;;;;5076497;28;20059;-43
2021/06/19 07:40:27;;;;;;;11.23;9.38;;;23.00;97.60;;;;;;5084220;28;20035;-42
2021/06/19 07:42:52;;;;;;;10.20;8.88;;;23.00;98.00;;;;;;5063220;28;20469;-42
2021/06/19 07:45:18;;;;;;;9.70;8.30;;;23.00;97.50;;;;;;5059450;28;20038;-42
2021/06/19 07:47:44;;;;;;;9.27;8.27;;;23.00;97.40;;;;;;5063114;28;20048;-42
2021/06/19 07:50:10;;;;;;;11.52;9.20;;;23.00;97.50;;;;;;5057432;28;20013;-41
2021/06/19 07:52:36;;;;;;;12.50;10.07;;;23.10;97.50;;;;;;5078237;28;20141;-43
2021/06/19 07:55:03;;;;;;;14.32;10.38;;;23.20;97.10;;;;;;5049474;28;20033;-42
2021/06/19 07:57:29;;;;;;;15.23;10.73;;;23.20;97.20;;;;;;5080368;28;20363;-41
2021/06/19 07:59:55;;;;;;;13.13;11.13;;;23.20;97.10;;;;;;5070535;28;20241;-43
2021/06/19 08:02:21;;;;;;;15.63;12.48;;;23.20;97.20;;;;;;5067356;28;20400;-42
2021/06/19 08:04:46;;;;;;;18.88;12.98;;;23.20;97.00;;;;;;5060702;28;20437;-42
2021/06/19 08:07:12;;;;;;;15.68;11.70;;;23.20;97.20;;;;;;5067749;28;20043;-41
2021/06/19 08:09:37;;;;;;;16.55;12.98;;;23.30;97.40;;;;;;5065250;28;20017;-44
2021/06/19 08:12:12;;;;;;;18.38;14.55;;;23.20;96.90;;;;;;5070267;28;20331;-44
2021/06/19 08:14:38;;;;;;;17.30;13.77;;;23.20;96.80;;;;;;5075054;28;20687;-43
2021/06/19 08:17:08;;;;;;;17.00;14.65;;;23.20;97.00;;;;;;5074257;28;20091;-42
2021/06/19 08:19:35;;;;;;;18.65;14.50;;;23.30;96.80;;;;;;5062381;28;20373;-42
2021/06/19 08:22:01;;;;;;;16.92;13.25;;;23.30;96.50;;;;;;5065049;28;20043;-43
2021/06/19 08:24:27;;;;;;;17.95;14.25;;;23.30;96.80;;;;;;5063974;28;20128;-42
2021/06/19 08:26:52;;;;;;;16.60;14.57;;;23.30;96.70;;;;;;5062408;28;20118;-42
2021/06/19 08:29:18;;;;;;;17.52;13.02;;;23.40;96.20;;;;;;5079094;28;20059;-41
2021/06/19 08:31:44;;;;;;;23.58;15.52;;;23.40;96.40;;;;;;5070676;28;20107;-42
2021/06/19 08:34:09;;;;;;;17.50;15.18;;;23.50;96.10;;;;;;5080120;28;20155;-43
2021/06/19 08:36:35;;;;;;;17.85;14.10;;;23.40;96.20;;;;;;5070113;28;20107;-42
2021/06/19 08:39:01;;;;;;;20.20;15.38;;;23.40;96.40;;;;;;5081412;28;20484;-42
2021/06/19 08:41:27;;;;;;;15.90;13.73;;;23.30;96.20;;;;;;5068875;28;20040;-42
2021/06/19 08:43:53;;;;;;;14.68;13.10;;;23.30;96.20;;;;;;5081176;28;20115;-43
2021/06/19 08:46:21;;;;;;;14.55;11.98;;;23.20;96.20;;;;;;5069336;28;20170;-42
2021/06/19 08:48:51;;;;;;;15.27;13.40;;;23.10;96.20;;;;;;5079277;28;20094;-43
2021/06/19 08:51:19;;;;;;;12.40;10.45;;;23.10;95.90;;;;;;5070683;28;20024;-43
2021/06/19 08:53:44;;;;;;;10.23;8.32;;;23.00;96.30;;;;;;5077157;28;20024;-42
2021/06/19 08:56:10;;;;;;;10.30;9.20;;;23.10;96.50;;;;;;5072590;28;20365;-41
2021/06/19 08:58:35;;;;;;;9.73;8.73;;;23.10;96.30;;;;;;5075021;28;20485;-43
2021/06/19 09:01:01;;;;;;;10.35;8.93;;;23.10;96.20;;;;;;5087159;28;20058;-43
2021/06/19 09:03:27;;;;;;;10.68;9.32;;;23.10;96.30;;;;;;5085531;28;20139;-42
2021/06/19 09:06:13;;;;;;;11.48;10.25;;;23.20;96.00;;;;;;5079007;28;20032;-42
2021/06/19 09:09:05;;;;;;;11.82;10.60;;;23.20;95.80;;;;;;5084803;28;20031;-41
2021/06/19 09:11:56;;;;;;;9.23;8.23;;;23.20;95.90;;;;;;5083714;28;20428;-42
2021/06/19 09:14:43;;;;;;;10.85;9.20;;;23.20;95.50;;;;;;5080416;28;20028;-42
2021/06/19 09:17:08;;;;;;;7.65;6.85;;;23.20;95.60;;;;;;5087142;28;20035;-42
2021/06/19 09:19:35;;;;;;;8.70;7.85;;;23.30;95.90;;;;;;5080418;28;20028;-42
2021/06/19 09:22:21;;;;;;;10.10;8.70;;;23.50;95.70;;;;;;5084018;28;20047;-42
2021/06/19 09:24:52;;;;;;;10.55;8.63;;;23.60;95.50;;;;;;5079915;28;20078;-41
2021/06/19 09:27:36;;;;;;;13.10;8.80;;;23.50;95.20;;;;;;5085792;28;20169;-42
2021/06/19 09:30:20;;;;;;;9.45;7.53;;;23.50;95.60;;;;;;5077805;28;20032;-41
2021/06/19 09:32:48;;;;;;;9.65;7.82;;;23.60;95.50;;;;;;5087947;28;20441;-42
2021/06/19 09:35:24;;;;;;;10.40;8.73;;;23.60;95.60;;;;;;5078526;28;20028;-42
2021/06/19 09:37:52;;;;;;;9.63;8.63;;;23.70;95.50;;;;;;5087079;28;20391;-44
2021/06/19 09:40:35;;;;;;;8.48;7.38;;;23.80;95.40;;;;;;5079195;28;20029;-42
2021/06/19 09:43:09;;;;;;;10.32;9.25;;;23.90;95.40;;;;;;5084128;28;20042;-42
2021/06/19 09:45:36;;;;;;;12.70;10.93;;;24.10;95.30;;;;;;5078562;28;20036;-42
2021/06/19 09:48:02;;;;;;;12.07;10.88;;;24.10;94.70;;;;;;5085436;28;20436;-43
2021/06/19 09:50:28;;;;;;;12.35;11.05;;;24.00;94.60;;;;;;5080457;28;20020;-39
2021/06/19 09:52:53;;;;;;;12.52;10.02;;;23.90;94.90;;;;;;5083126;28;20030;-42
2021/06/19 09:55:20;;;;;;;14.90;11.93;;;23.80;94.90;;;;;;5083761;28;20020;-43
2021/06/19 09:57:52;;;;;;;15.20;12.40;;;23.70;95.20;;;;;;5080009;28;20022;-42
2021/06/19 10:00:21;;;;;;;12.43;10.82;;;23.60;95.00;;;;;;5085238;28;20035;-42
2021/06/19 10:02:47;;;;;;;11.20;9.90;;;23.50;95.30;;;;;;5079204;28;20055;-41
2021/06/19 10:05:13;;;;;;;11.57;9.93;;;23.50;95.40;;;;;;5086032;28;20074;-42
2021/06/19 10:07:39;;;;;;;10.13;9.02;;;23.50;95.20;;;;;;5077320;28;20055;-42
2021/06/19 10:10:10;;;;;;;10.07;8.95;;;23.60;95.10;;;;;;5086290;28;20021;-41
2021/06/19 10:12:37;;;;;;;11.13;9.68;;;23.70;95.10;;;;;;5076159;28;20028;-42
2021/06/19 10:15:07;;;;;;;11.75;9.63;;;23.90;94.80;;;;;;5087223;28;20075;-42
2021/06/19 10:17:40;;;;;;;10.52;8.43;;;24.10;94.90;;;;;;5075360;28;20023;-42
2021/06/19 10:20:10;;;;;;;11.48;10.32;;;24.20;94.80;;;;;;5073164;28;20419;-42
2021/06/19 10:22:37;;;;;;;11.32;9.48;;;24.30;94.50;;;;;;5080229;28;20020;-41
2021/06/19 10:25:11;;;;;;;8.82;7.72;;;24.30;94.50;;;;;;5065958;28;20112;-42
2021/06/19 10:27:45;;;;;;;9.15;8.25;;;24.30;94.50;;;;;;5066880;28;20096;-42
2021/06/19 10:30:11;;;;;;;10.88;9.73;;;24.30;94.60;;;;;;5055703;28;20111;-41
2021/06/19 10:32:49;;;;;;;9.73;8.82;;;24.40;94.50;;;;;;5079959;28;20030;-41
2021/06/19 10:35:17;;;;;;;10.45;9.32;;;24.60;94.40;;;;;;5049032;28;20120;-42
2021/06/19 10:37:48;;;;;;;9.32;8.43;;;24.80;94.20;;;;;;5079582;28;20637;-42
2021/06/19 10:40:28;;;;;;;9.73;8.73;;;24.90;94.00;;;;;;5067190;28;20047;-43
2021/06/19 10:43:12;;;;;;;8.95;8.10;;;25.00;93.90;;;;;;5078900;28;20083;-42
2021/06/19 10:45:43;;;;;;;11.07;9.98;;;25.00;93.20;;;;;;5067242;28;20383;-41
2021/06/19 10:48:12;;;;;;;10.43;9.35;;;24.90;93.00;;;;;;5079428;28;20111;-42
2021/06/19 10:50:41;;;;;;;10.57;9.57;;;24.90;93.30;;;;;;5067763;28;20104;-41
2021/06/19 10:53:14;;;;;;;10.60;9.60;;;24.90;93.30;;;;;;5078528;28;20465;-42
2021/06/19 10:55:43;;;;;;;9.20;8.30;;;25.00;93.20;;;;;;5047197;28;20028;-41
2021/06/19 10:58:28;;;;;;;9.07;8.27;;;25.20;93.10;;;;;;5073080;28;20850;-41
2021/06/19 11:01:00;;;;;;;9.07;8.18;;;25.20;93.20;;;;;;5066268;28;20427;-42
2021/06/19 11:03:43;;;;;;;9.18;7.97;;;25.30;93.30;;;;;;5075120;28;20492;-42
2021/06/19 11:06:29;;;;;;;9.10;8.20;;;25.40;93.20;;;;;;5047333;28;20043;-42
2021/06/19 11:09:03;;;;;;;9.32;8.30;;;25.40;93.00;;;;;;5061932;28;20049;-42
2021/06/19 11:11:48;;;;;;;10.70;9.70;;;25.40;93.20;;;;;;5087508;28;20036;-43
2021/06/19 11:14:33;;;;;;;12.48;11.38;;;25.50;93.20;;;;;;5073824;28;20024;-42
2021/06/19 11:16:59;;;;;;;12.82;10.05;;;25.50;92.40;;;;;;5053946;28;20033;-42
2021/06/19 11:19:36;;;;;;;11.88;10.68;;;25.30;92.70;;;;;;5068450;28;20023;-42
2021/06/19 11:22:30;;;;;;;8.63;7.75;;;25.30;92.80;;;;;;5054401;28;20025;-42
2021/06/19 11:25:35;;;;;;;11.40;10.35;;;25.10;92.90;;;;;;5060327;28;20173;-45
2021/06/19 11:28:08;;;;;;;11.23;10.13;;;25.00;93.00;;;;;;5058783;28;20029;-42
2021/06/19 11:30:33;;;;;;;11.68;10.48;;;25.00;93.00;;;;;;5062413;28;20039;-41
2021/06/19 11:33:20;;;;;;;14.32;12.90;;;25.00;93.00;;;;;;5054922;28;20016;-42
2021/06/19 11:35:49;;;;;;;13.43;12.02;;;25.00;92.60;;;;;;5068897;28;20115;-42
2021/06/19 11:38:16;;;;;;;12.23;11.02;;;25.00;92.60;;;;;;5062076;28;20028;-42
2021/06/19 11:40:43;;;;;;;11.05;9.95;;;25.00;92.80;;;;;;5082078;28;20434;-42
2021/06/19 11:43:10;;;;;;;12.13;10.95;;;25.00;92.90;;;;;;5071134;28;20116;-41
2021/06/19 11:45:38;;;;;;;11.55;10.40;;;24.90;92.80;;;;;;5083633;28;20028;-42
2021/06/19 11:48:05;;;;;;;11.57;10.57;;;24.90;92.90;;;;;;5090878;28;20032;-41
2021/06/19 11:51:06;;;;;;;15.13;13.68;;;24.90;93.10;;;;;;5078156;28;20028;-41
2021/06/19 11:53:38;;;;;;;12.20;11.00;;;25.00;92.30;;;;;;5065958;28;20028;-42
2021/06/19 11:56:10;;;;;;;;;;;24.90;92.70;;;;;;5081766;28;20024;-41
2021/06/19 11:58:51;;;;;;;14.75;13.35;;;24.90;92.80;;;;;;5071894;28;19908;-42
2021/06/19 12:01:18;;;;;;;12.80;11.60;;;24.80;92.80;;;;;;5073140;28;20041;-41
2021/06/19 12:03:44;;;;;;;16.77;15.20;;;24.80;92.80;;;;;;5063584;28;20074;-41
2021/06/19 12:06:10;;;;;;;14.80;13.40;;;24.90;92.50;;;;;;5081733;28;20024;-42
2021/06/19 12:08:39;;;;;;;16.33;14.82;;;24.90;92.60;;;;;;5069375;28;20451;-42
2021/06/19 12:11:05;;;;;;;15.43;13.85;;;24.80;92.50;;;;;;5082040;28;20044;-42
2021/06/19 12:13:35;;;;;;;14.15;12.80;;;24.70;92.50;;;;;;5070555;28;20024;-42
2021/06/19 12:16:03;;;;;;;16.08;14.45;;;24.60;92.40;;;;;;5082168;28;20028;-42
2021/06/19 12:18:29;;;;;;;13.75;12.43;;;24.50;92.70;;;;;;5069678;28;20434;-43
2021/06/19 12:21:07;;;;;;;13.90;12.50;;;24.50;92.80;;;;;;5080536;28;20028;-42
2021/06/19 12:23:38;;;;;;;16.60;15.00;;;24.40;92.90;;;;;;5050052;28;20105;-42
2021/06/19 12:26:07;;;;;;;13.20;11.93;;;24.40;92.90;;;;;;5075026;28;20035;-43
2021/06/19 12:28:34;;;;;;;14.02;12.57;;;24.50;93.20;;;;;;5071175;28;20102;-43
2021/06/19 12:31:00;;;;;;;16.27;14.02;;;24.60;93.10;;;;;;5078151;28;20027;-42
2021/06/19 12:33:28;;;;;;;16.70;15.10;;;24.60;93.00;;;;;;5072977;28;20027;-42
2021/06/19 12:35:54;;;;;;;13.82;12.52;;;24.60;92.70;;;;;;5076040;28;20016;-42
2021/06/19 12:38:21;;;;;;;12.88;11.68;;;24.60;93.20;;;;;;5075696;28;20161;-41
2021/06/19 12:40:46;;;;;;;16.08;14.48;;;24.60;93.10;;;;;;5072133;28;20128;-42
2021/06/19 12:43:15;;;;;;;13.30;12.10;;;24.70;92.90;;;;;;5078377;28;20063;-43
2021/06/19 12:45:46;;;;;;;14.43;13.07;;;24.80;93.00;;;;;;5070104;28;20038;-41